createdAt,value
2023-07-22T00:01:25.028Z,100737.16
2023-07-22T00:03:51.448Z,100740.63
2023-07-22T00:06:17.904Z,100730.94
2023-07-22T00:08:44.323Z,100745.09
2023-07-22T00:11:10.692Z,100730.03
2023-07-22T00:13:37.109Z,100733.72
2023-07-22T00:16:05.351Z,100736.22
2023-07-22T00:18:32.176Z,100739.50
2023-07-22T00:20:58.572Z,100740.28
2023-07-22T00:23:25.443Z,100743.22
2023-07-22T00:25:51.963Z,100744.34
2023-07-22T00:28:19.581Z,100750.66
2023-07-22T00:30:46.023Z,100741.72
2023-07-22T00:33:13.495Z,100737.50
2023-07-22T00:35:39.819Z,100735.72
2023-07-22T00:38:06.655Z,100736.53
2023-07-22T00:40:33.223Z,100731.28
2023-07-22T00:43:00.636Z,100732.13
2023-07-22T00:45:27.050Z,100733.72
2023-07-22T00:47:54.016Z,100734.97
2023-07-22T00:50:20.429Z,100734.09
2023-07-22T00:52:46.850Z,100728.72
2023-07-22T00:55:13.351Z,100734.00
2023-07-22T00:57:39.760Z,100726.94
2023-07-22T01:00:07.150Z,100719.34
2023-07-22T01:02:35.847Z,100724.53
2023-07-22T01:05:02.520Z,100726.88
2023-07-22T01:07:29.146Z,100723.53
2023-07-22T01:10:01.383Z,100724.31
2023-07-22T01:12:27.793Z,100730.72
2023-07-22T01:14:54.207Z,100725.50
2023-07-22T01:17:20.708Z,100728.94
2023-07-22T01:19:48.802Z,100723.59
2023-07-22T01:22:16.051Z,100731.34
2023-07-22T01:24:42.808Z,100733.63
2023-07-22T01:27:11.075Z,100733.59
2023-07-22T01:29:37.712Z,100741.59
2023-07-22T01:32:04.524Z,100753.00
2023-07-22T01:34:32.656Z,100747.50
2023-07-22T01:36:59.303Z,100744.81
2023-07-22T01:39:25.640Z,100744.72
2023-07-22T01:41:52.027Z,100737.63
2023-07-22T01:44:18.367Z,100729.56
2023-07-22T01:46:44.739Z,100742.78
2023-07-22T01:49:13.459Z,100734.78
2023-07-22T01:51:41.536Z,100724.41
2023-07-22T01:54:08.503Z,100727.97
2023-07-22T01:56:34.856Z,100727.88
2023-07-22T01:59:01.229Z,100734.97
2023-07-22T02:01:29.215Z,100731.44
2023-07-22T02:03:56.555Z,100732.34
2023-07-22T02:06:23.352Z,100734.22
2023-07-22T02:08:50.325Z,100731.28
2023-07-22T02:11:18.019Z,100732.47
2023-07-22T02:13:44.356Z,100727.41
2023-07-22T02:16:12.777Z,100737.06
2023-07-22T02:18:39.313Z,100736.91
2023-07-22T02:21:05.724Z,100731.00
2023-07-22T02:23:32.205Z,100736.28
2023-07-22T02:25:58.668Z,100724.69
2023-07-22T02:28:25.785Z,100735.25
2023-07-22T02:30:53.443Z,100739.59
2023-07-22T02:33:20.652Z,100740.63
2023-07-22T02:35:48.244Z,100742.41
2023-07-22T02:38:15.398Z,100734.56
2023-07-22T02:40:42.055Z,100745.88
2023-07-22T02:43:08.649Z,100744.06
2023-07-22T02:45:35.395Z,100735.38
2023-07-22T02:48:02.139Z,100744.25
2023-07-22T02:50:28.722Z,100755.59
2023-07-22T02:52:55.120Z,100753.97
2023-07-22T02:55:21.484Z,100748.53
2023-07-22T02:57:48.640Z,100761.63
2023-07-22T03:00:24.380Z,100767.06
2023-07-22T03:03:02.555Z,100752.88
2023-07-22T03:05:30.063Z,100747.50
2023-07-22T03:07:56.873Z,100746.69
2023-07-22T03:10:23.598Z,100749.41
2023-07-22T03:12:50.155Z,100762.44
2023-07-22T03:15:16.804Z,100758.06
2023-07-22T03:17:43.244Z,100753.75
2023-07-22T03:20:15.136Z,100764.31
2023-07-22T03:22:42.681Z,100758.25
2023-07-22T03:25:13.109Z,100767.94
2023-07-22T03:27:39.866Z,100759.13
2023-07-22T03:30:11.687Z,100757.44
2023-07-22T03:32:38.193Z,100757.28
2023-07-22T03:35:05.041Z,100768.72
2023-07-22T03:37:31.401Z,100765.19
2023-07-22T03:39:57.794Z,100769.44
2023-07-22T03:42:24.192Z,100769.44
2023-07-22T03:44:50.559Z,100779.03
2023-07-22T03:47:17.011Z,100781.78
2023-07-22T03:49:43.433Z,100779.19
2023-07-22T03:52:09.847Z,100774.94
2023-07-22T03:54:36.202Z,100778.31
2023-07-22T03:57:02.591Z,100780.16
2023-07-22T03:59:29.770Z,100771.34
2023-07-22T04:01:56.179Z,100784.47
2023-07-22T04:04:22.599Z,100781.03
2023-07-22T04:06:49.059Z,100778.31
2023-07-22T04:09:15.432Z,100786.22
2023-07-22T04:11:41.760Z,100782.75
2023-07-22T04:14:08.124Z,100783.56
2023-07-22T04:16:34.515Z,100784.44
2023-07-22T04:19:00.865Z,100790.50
2023-07-22T04:21:27.256Z,100795.66
2023-07-22T04:23:54.620Z,100802.59
2023-07-22T04:26:21.404Z,100793.88
2023-07-22T04:28:47.803Z,100798.34
2023-07-22T04:31:14.171Z,100807.03
2023-07-22T04:33:42.557Z,100791.94
2023-07-22T04:36:08.960Z,100807.00
2023-07-22T04:38:35.342Z,100808.81
2023-07-22T04:41:04.767Z,100814.22
2023-07-22T04:43:31.374Z,100824.69
2023-07-22T04:45:57.739Z,100817.69
2023-07-22T04:48:24.521Z,100813.97
2023-07-22T04:50:51.246Z,100818.41
2023-07-22T04:53:18.677Z,100822.88
2023-07-22T04:55:45.044Z,100814.84
2023-07-22T04:58:11.944Z,100823.56
2023-07-22T05:00:38.931Z,100823.66
2023-07-22T05:03:05.876Z,100816.59
2023-07-22T05:05:33.001Z,100820.94
2023-07-22T05:07:59.384Z,100826.28
2023-07-22T05:10:25.779Z,100820.00
2023-07-22T05:12:52.151Z,100821.91
2023-07-22T05:15:18.618Z,100833.34
2023-07-22T05:17:45.071Z,100827.94
2023-07-22T05:20:11.879Z,100835.75
2023-07-22T05:22:38.847Z,100841.03
2023-07-22T05:25:06.681Z,100838.41
2023-07-22T05:27:33.449Z,100831.34
2023-07-22T05:29:59.961Z,100838.13
2023-07-22T05:32:33.495Z,100840.03
2023-07-22T05:35:01.088Z,100840.88
2023-07-22T05:37:27.498Z,100845.28
2023-07-22T05:39:53.893Z,100840.91
2023-07-22T05:42:20.281Z,100845.38
2023-07-22T05:44:46.631Z,100849.88
2023-07-22T05:47:12.991Z,100850.38
2023-07-22T05:49:39.351Z,100853.97
2023-07-22T05:52:06.269Z,100859.22
2023-07-22T05:54:32.766Z,100866.19
2023-07-22T05:56:59.182Z,100855.84
2023-07-22T05:59:25.532Z,100859.34
2023-07-22T06:01:52.013Z,100859.28
2023-07-22T06:04:18.593Z,100861.84
2023-07-22T06:06:45.098Z,100851.50
2023-07-22T06:09:11.850Z,100859.91
2023-07-22T06:11:38.212Z,100864.06
2023-07-22T06:14:04.600Z,100853.34
2023-07-22T06:16:30.970Z,100858.88
2023-07-22T06:18:57.377Z,100856.28
2023-07-22T06:21:23.749Z,100860.25
2023-07-22T06:23:50.075Z,100854.03
2023-07-22T06:26:16.444Z,100863.31
2023-07-22T06:28:43.393Z,100867.06
2023-07-22T06:31:09.774Z,100866.59
2023-07-22T06:33:37.105Z,100871.19
2023-07-22T06:36:03.708Z,100862.28
2023-07-22T06:38:30.100Z,100862.91
2023-07-22T06:40:56.432Z,100864.31
2023-07-22T06:43:22.928Z,100869.84
2023-07-22T06:45:49.319Z,100874.69
2023-07-22T06:48:15.729Z,100876.81
2023-07-22T06:50:48.543Z,100868.06
2023-07-22T06:53:15.928Z,100868.13
2023-07-22T06:55:52.455Z,100873.22
2023-07-22T06:58:20.424Z,100875.47
2023-07-22T07:00:46.907Z,100869.72
2023-07-22T07:03:13.398Z,100868.97
2023-07-22T07:05:42.463Z,100879.25
2023-07-22T07:08:11.353Z,100880.19
2023-07-22T07:10:39.270Z,100879.38
2023-07-22T07:13:05.701Z,100875.22
2023-07-22T07:15:32.064Z,100872.34
2023-07-22T07:17:58.476Z,100877.81
2023-07-22T07:20:24.877Z,100877.41
2023-07-22T07:22:51.857Z,100877.44
2023-07-22T07:25:18.345Z,100870.63
2023-07-22T07:27:44.710Z,100870.03
2023-07-22T07:30:11.576Z,100877.38
2023-07-22T07:32:38.019Z,100877.97
2023-07-22T07:35:05.212Z,100873.09
2023-07-22T07:37:33.339Z,100877.66
2023-07-22T07:40:00.780Z,100879.31
2023-07-22T07:42:30.234Z,100872.47
2023-07-22T07:44:56.696Z,100877.66
2023-07-22T07:47:28.983Z,100878.63
2023-07-22T07:49:55.435Z,100888.56
2023-07-22T07:52:21.797Z,100880.97
2023-07-22T07:54:54.690Z,100883.06
2023-07-22T07:57:21.185Z,100892.22
2023-07-22T07:59:47.555Z,100884.09
2023-07-22T08:02:13.983Z,100888.66
2023-07-22T08:04:40.389Z,100886.00
2023-07-22T08:07:07.463Z,100882.50
2023-07-22T08:09:33.810Z,100881.13
2023-07-22T08:12:00.161Z,100890.00
2023-07-22T08:14:26.538Z,100893.22
2023-07-22T08:16:52.878Z,100886.72
2023-07-22T08:19:19.254Z,100887.34
2023-07-22T08:21:45.597Z,100887.25
2023-07-22T08:24:11.989Z,100895.28
2023-07-22T08:26:38.440Z,100894.94
2023-07-22T08:29:04.812Z,100889.19
2023-07-22T08:31:31.220Z,100889.88
2023-07-22T08:33:57.991Z,100891.31
2023-07-22T08:36:24.392Z,100894.63
2023-07-22T08:38:50.786Z,100895.41
2023-07-22T08:41:17.367Z,100891.59
2023-07-22T08:43:46.323Z,100889.25
2023-07-22T08:46:13.605Z,100899.06
2023-07-22T08:48:43.497Z,100901.88
2023-07-22T08:51:17.559Z,100917.34
2023-07-22T08:54:04.765Z,100900.53
2023-07-22T08:56:34.407Z,100906.47
2023-07-22T08:59:01.514Z,100906.38
2023-07-22T09:01:28.377Z,100902.75
2023-07-22T09:03:55.553Z,100901.09
2023-07-22T09:06:22.054Z,100904.72
2023-07-22T09:08:48.626Z,100907.88
2023-07-22T09:11:16.338Z,100908.13
2023-07-22T09:13:45.787Z,100910.53
2023-07-22T09:16:12.435Z,100918.78
2023-07-22T09:18:38.809Z,100927.22
2023-07-22T09:21:05.160Z,100929.59
2023-07-22T09:23:36.427Z,100926.38
2023-07-22T09:26:10.083Z,100928.41
2023-07-22T09:29:08.954Z,100926.44
2023-07-22T09:31:50.048Z,100926.41
2023-07-22T09:34:16.405Z,100924.81
2023-07-22T09:36:59.012Z,100913.31
2023-07-22T09:39:25.596Z,100917.84
2023-07-22T09:41:53.790Z,100915.78
2023-07-22T09:44:20.247Z,100911.41
2023-07-22T09:46:50.618Z,100904.16
2023-07-22T09:49:19.068Z,100899.75
2023-07-22T09:52:00.861Z,100902.31
2023-07-22T09:54:32.148Z,100902.06
2023-07-22T09:56:58.878Z,100902.78
2023-07-22T09:59:25.375Z,100903.75
2023-07-22T10:01:52.774Z,100906.97
2023-07-22T10:04:22.780Z,100906.09
2023-07-22T10:06:49.821Z,100887.69
2023-07-22T10:09:16.411Z,100891.69
2023-07-22T10:11:42.952Z,100883.97
2023-07-22T10:14:09.365Z,100889.84
2023-07-22T10:16:37.033Z,100886.50
2023-07-22T10:19:04.018Z,100883.72
2023-07-22T10:21:31.645Z,100885.69
2023-07-22T10:23:58.231Z,100886.38
2023-07-22T10:26:40.516Z,100882.22
2023-07-22T10:29:11.379Z,100899.84
2023-07-22T10:31:37.765Z,100901.16
2023-07-22T10:34:04.430Z,100907.56
2023-07-22T10:36:32.033Z,100908.53
2023-07-22T10:39:03.307Z,100922.03
2023-07-22T10:41:30.850Z,100943.25
2023-07-22T10:43:59.082Z,100958.41
2023-07-22T10:46:36.423Z,100950.28
2023-07-22T10:49:17.491Z,100955.00
2023-07-22T10:51:52.293Z,100991.19
2023-07-22T10:54:37.541Z,101004.28
2023-07-22T10:57:05.671Z,100980.88
2023-07-22T10:59:35.444Z,100974.03
2023-07-22T11:02:01.856Z,100967.16
2023-07-22T11:07:06.816Z,100959.88
2023-07-22T11:09:37.700Z,100952.03
2023-07-22T11:12:14.350Z,100944.97
2023-07-22T11:14:47.093Z,100929.13
2023-07-22T11:17:13.558Z,100931.50
2023-07-22T11:19:40.993Z,100926.69
2023-07-22T11:22:07.680Z,100924.84
2023-07-22T11:24:36.773Z,100914.22
2023-07-22T11:27:05.323Z,100913.31
2023-07-22T11:29:32.456Z,100907.19
2023-07-22T11:31:58.960Z,100905.63
2023-07-22T11:34:25.915Z,100899.25
2023-07-22T11:36:53.624Z,100901.88
2023-07-22T11:39:21.525Z,100899.44
2023-07-22T11:41:49.079Z,100898.41
2023-07-22T11:44:17.684Z,100895.34
2023-07-22T11:47:06.641Z,100900.94
2023-07-22T11:49:34.409Z,100891.03
2023-07-22T11:52:08.482Z,100894.25
2023-07-22T11:54:39.032Z,100895.25
2023-07-22T11:57:18.848Z,100896.84
2023-07-22T11:59:50.616Z,100891.19
2023-07-22T12:02:22.266Z,100891.94
2023-07-22T12:04:58.014Z,100894.81
2023-07-22T12:07:25.872Z,100901.03
2023-07-22T12:09:53.262Z,100892.47
2023-07-22T12:12:19.755Z,100884.19
2023-07-22T12:14:46.184Z,100886.25
2023-07-22T12:17:12.598Z,100892.38
2023-07-22T12:19:38.974Z,100891.19
2023-07-22T12:22:05.332Z,100891.28
2023-07-22T12:24:31.734Z,100886.31
2023-07-22T12:26:58.182Z,100886.59
2023-07-22T12:29:24.785Z,100885.38
2023-07-22T12:31:51.222Z,100882.25
2023-07-22T12:34:17.624Z,100889.69
2023-07-22T12:36:43.981Z,100892.63
2023-07-22T12:39:10.390Z,100892.03
2023-07-22T12:41:36.728Z,100894.84
2023-07-22T12:44:03.397Z,100889.28
2023-07-22T12:46:29.840Z,100898.66
2023-07-22T12:48:56.210Z,100900.63
2023-07-22T12:51:22.658Z,100894.63
2023-07-22T12:53:49.131Z,100899.78
2023-07-22T12:56:15.472Z,100901.16
2023-07-22T12:58:41.813Z,100905.91
2023-07-22T13:01:08.813Z,100902.97
2023-07-22T13:03:35.308Z,100901.50
2023-07-22T13:06:01.765Z,100902.78
2023-07-22T13:08:28.101Z,100903.34
2023-07-22T13:10:54.438Z,100901.25
2023-07-22T13:13:20.891Z,100899.81
2023-07-22T13:15:47.302Z,100901.31
2023-07-22T13:18:14.757Z,100914.22
2023-07-22T13:20:41.612Z,100917.56
2023-07-22T13:23:08.421Z,100924.03
2023-07-22T13:25:34.846Z,100932.84
2023-07-22T13:28:01.249Z,100935.16
2023-07-22T13:30:27.643Z,100947.22
2023-07-22T13:32:54.172Z,100953.00
2023-07-22T13:35:21.021Z,100955.59
2023-07-22T13:37:47.387Z,100951.69
2023-07-22T13:40:13.886Z,100952.47
2023-07-22T13:42:40.381Z,100959.69
2023-07-22T13:45:07.390Z,100952.66
2023-07-22T13:47:33.909Z,100960.03
2023-07-22T13:50:00.314Z,100959.22
2023-07-22T13:52:26.692Z,100950.97
2023-07-22T13:54:53.087Z,100957.31
2023-07-22T13:57:19.456Z,100953.97
2023-07-22T13:59:45.814Z,100946.16
2023-07-22T14:02:12.299Z,100946.25
2023-07-22T14:04:39.488Z,100934.97
2023-07-22T14:07:06.207Z,100942.44
2023-07-22T14:09:32.598Z,100947.19
2023-07-22T14:11:58.943Z,100943.63
2023-07-22T14:14:29.597Z,100943.97
2023-07-22T14:16:57.147Z,100936.19
2023-07-22T14:19:24.864Z,100937.09
2023-07-22T14:21:51.395Z,100942.00
2023-07-22T14:24:17.836Z,100938.66
2023-07-22T14:26:44.232Z,100936.91
2023-07-22T14:29:10.640Z,100939.78
2023-07-22T14:31:37.053Z,100937.69
2023-07-22T14:34:03.461Z,100939.31
2023-07-22T14:36:29.873Z,100936.25
2023-07-22T14:38:56.967Z,100939.22
2023-07-22T14:41:23.511Z,100930.19
2023-07-22T14:43:49.905Z,100933.38
2023-07-22T14:46:16.272Z,100923.63
2023-07-22T14:48:43.577Z,100923.69
2023-07-22T14:51:10.110Z,100925.16
2023-07-22T14:53:36.503Z,100923.78
2023-07-22T14:56:02.959Z,100927.94
2023-07-22T14:58:29.320Z,100916.31
2023-07-22T15:00:55.722Z,100922.31
2023-07-22T15:03:22.163Z,100917.44
2023-07-22T15:05:48.611Z,100916.94
2023-07-22T15:08:14.980Z,100925.09
2023-07-22T15:10:41.618Z,100914.31
2023-07-22T15:13:08.093Z,100913.94
2023-07-22T15:15:34.464Z,100920.63
2023-07-22T15:18:00.963Z,100910.56
2023-07-22T15:20:27.456Z,100920.78
2023-07-22T15:22:53.937Z,100911.34
2023-07-22T15:25:20.411Z,100915.00
2023-07-22T15:27:46.767Z,100910.13
2023-07-22T15:30:13.192Z,100918.09
2023-07-22T15:32:39.800Z,100908.59
2023-07-22T15:35:06.904Z,100914.75
2023-07-22T15:37:33.283Z,100910.72
2023-07-22T15:39:59.659Z,100903.22
2023-07-22T15:42:26.075Z,100898.63
2023-07-22T15:44:52.486Z,100901.97
2023-07-22T15:47:19.028Z,100888.44
2023-07-22T15:49:45.440Z,100891.72
2023-07-22T15:52:11.851Z,100887.59
2023-07-22T15:54:38.262Z,100883.31
2023-07-22T15:57:04.752Z,100887.16
2023-07-22T15:59:31.188Z,100880.16
2023-07-22T16:01:57.546Z,100887.19
2023-07-22T16:04:23.941Z,100880.56
2023-07-22T16:06:50.279Z,100875.44
2023-07-22T16:09:16.720Z,100875.69
2023-07-22T16:11:43.074Z,100878.28
2023-07-22T16:14:10.703Z,100887.59
2023-07-22T16:16:38.479Z,100881.84
2023-07-22T16:19:05.228Z,100879.38
2023-07-22T16:21:31.588Z,100881.44
2023-07-22T16:23:57.940Z,100884.94
2023-07-22T16:26:24.307Z,100879.22
2023-07-22T16:28:51.011Z,100875.16
2023-07-22T16:31:17.430Z,100871.19
2023-07-22T16:33:43.810Z,100866.50
2023-07-22T16:36:10.163Z,100869.50
2023-07-22T16:38:36.548Z,100864.97
2023-07-22T16:41:02.955Z,100869.06
2023-07-22T16:43:29.385Z,100863.72
2023-07-22T16:45:55.879Z,100860.75
2023-07-22T16:48:22.314Z,100859.56
2023-07-22T16:50:48.686Z,100863.56
2023-07-22T16:53:15.096Z,100858.03
2023-07-22T16:55:41.820Z,100841.19
2023-07-22T16:58:08.663Z,100843.41
2023-07-22T17:00:35.197Z,100842.91
2023-07-22T17:03:01.629Z,100840.97
2023-07-22T17:05:28.100Z,100842.31
2023-07-22T17:07:54.485Z,100842.63
2023-07-22T17:10:20.851Z,100839.66
2023-07-22T17:12:47.215Z,100834.19
2023-07-22T17:15:14.880Z,100832.22
2023-07-22T17:17:43.705Z,100824.97
2023-07-22T17:20:11.831Z,100822.00
2023-07-22T17:22:38.262Z,100820.03
2023-07-22T17:25:04.963Z,100814.56
2023-07-22T17:27:31.409Z,100815.56
2023-07-22T17:29:57.801Z,100800.72
2023-07-22T17:32:24.343Z,100813.34
2023-07-22T17:34:50.768Z,100809.56
2023-07-22T17:37:17.109Z,100807.78
2023-07-22T17:39:43.465Z,100801.97
2023-07-22T17:42:09.821Z,100807.97
2023-07-22T17:44:36.190Z,100804.03
2023-07-22T17:47:02.847Z,100802.88
2023-07-22T17:49:29.268Z,100802.00
2023-07-22T17:51:55.687Z,100794.78
2023-07-22T17:54:22.054Z,100806.78
2023-07-22T17:56:49.149Z,100799.03
2023-07-22T17:59:15.510Z,100799.69
2023-07-22T18:01:41.884Z,100793.91
2023-07-22T18:04:08.232Z,100791.69
2023-07-22T18:06:34.612Z,100795.94
2023-07-22T18:09:00.996Z,100799.31
2023-07-22T18:11:27.739Z,100795.84
2023-07-22T18:13:55.405Z,100801.09
2023-07-22T18:16:21.952Z,100798.72
2023-07-22T18:18:48.329Z,100790.84
2023-07-22T18:21:14.693Z,100783.91
2023-07-22T18:23:41.071Z,100783.50
2023-07-22T18:26:07.539Z,100777.44
2023-07-22T18:28:33.976Z,100787.16
2023-07-22T18:31:00.438Z,100786.25
2023-07-22T18:33:26.832Z,100788.06
2023-07-22T18:35:53.286Z,100794.16
2023-07-22T18:38:20.219Z,100785.31
2023-07-22T18:40:47.368Z,100785.47
2023-07-22T18:43:13.955Z,100788.56
2023-07-22T18:45:40.531Z,100788.31
2023-07-22T18:48:06.948Z,100775.34
2023-07-22T18:50:33.813Z,100778.72
2023-07-22T18:53:03.172Z,100775.38
2023-07-22T18:55:29.648Z,100769.03
2023-07-22T18:57:56.000Z,100777.03
2023-07-22T19:00:22.432Z,100778.97
2023-07-22T19:02:51.796Z,100771.53
2023-07-22T19:05:18.250Z,100780.78
2023-07-22T19:07:44.620Z,100770.38
2023-07-22T19:10:11.482Z,100773.47
2023-07-22T19:12:37.848Z,100768.34
2023-07-22T19:15:04.926Z,100773.38
2023-07-22T19:17:31.318Z,100768.78
2023-07-22T19:19:57.665Z,100772.56
2023-07-22T19:22:24.024Z,100769.63
2023-07-22T19:24:50.466Z,100773.72
2023-07-22T19:27:16.900Z,100774.19
2023-07-22T19:29:44.023Z,100770.25
2023-07-22T19:32:10.512Z,100770.25
2023-07-22T19:34:36.958Z,100768.88
2023-07-22T19:37:03.513Z,100766.34
2023-07-22T19:39:29.902Z,100770.44
2023-07-22T19:41:56.287Z,100766.66
2023-07-22T19:44:22.683Z,100761.19
2023-07-22T19:46:49.113Z,100763.16
2023-07-22T19:49:15.493Z,100761.69
2023-07-22T19:51:41.852Z,100766.16
2023-07-22T19:54:08.265Z,100769.09
2023-07-22T19:56:34.717Z,100766.47
2023-07-22T19:59:01.177Z,100767.09
2023-07-22T20:01:27.782Z,100771.19
2023-07-22T20:03:54.445Z,100763.50
2023-07-22T20:06:20.857Z,100764.00
2023-07-22T20:08:52.680Z,100759.91
2023-07-22T20:11:19.922Z,100762.59
2023-07-22T20:13:46.345Z,100765.13
2023-07-22T20:16:12.717Z,100764.03
2023-07-22T20:18:39.221Z,100769.88
2023-07-22T20:21:05.642Z,100769.41
2023-07-22T20:23:32.043Z,100768.31
2023-07-22T20:25:59.367Z,100768.19
2023-07-22T20:28:25.832Z,100773.47
2023-07-22T20:30:52.253Z,100778.72
2023-07-22T20:33:18.614Z,100774.31
2023-07-22T20:35:45.047Z,100765.47
2023-07-22T20:38:11.464Z,100763.78
2023-07-22T20:40:37.858Z,100778.19
2023-07-22T20:43:04.190Z,100779.69
2023-07-22T20:45:30.585Z,100769.03
2023-07-22T20:47:57.075Z,100765.31
2023-07-22T20:50:23.455Z,100762.66
2023-07-22T20:52:49.845Z,100766.38
2023-07-22T20:55:16.423Z,100754.81
2023-07-22T20:57:42.818Z,100762.06
2023-07-22T21:00:09.690Z,100769.00
2023-07-22T21:02:36.257Z,100769.38
2023-07-22T21:05:02.872Z,100772.00
2023-07-22T21:07:29.234Z,100768.66
2023-07-22T21:09:55.628Z,100768.69
2023-07-22T21:12:22.156Z,100772.88
2023-07-22T21:14:48.534Z,100769.25
2023-07-22T21:17:15.442Z,100762.53
2023-07-22T21:19:41.897Z,100759.81
2023-07-22T21:22:08.265Z,100760.91
2023-07-22T21:24:34.828Z,100764.97
2023-07-22T21:27:01.333Z,100766.78
2023-07-22T21:29:27.786Z,100765.25
2023-07-22T21:31:54.133Z,100759.94
2023-07-22T21:34:20.522Z,100760.69
2023-07-22T21:36:47.000Z,100761.09
2023-07-22T21:39:13.680Z,100767.22
2023-07-22T21:41:40.218Z,100755.72
2023-07-22T21:44:06.563Z,100758.53
2023-07-22T21:46:33.098Z,100756.59
2023-07-22T21:48:59.425Z,100755.72
2023-07-22T21:51:26.382Z,100759.03
2023-07-22T21:53:52.982Z,100762.16
2023-07-22T21:56:19.410Z,100759.66
2023-07-22T21:58:45.755Z,100755.00
2023-07-22T22:01:12.251Z,100763.41
2023-07-22T22:03:38.621Z,100766.69
2023-07-22T22:06:05.019Z,100768.41
2023-07-22T22:08:31.425Z,100768.50
2023-07-22T22:10:57.852Z,100771.81
2023-07-22T22:13:26.141Z,100765.75
2023-07-22T22:15:52.772Z,100766.47
2023-07-22T22:18:19.181Z,100769.31
2023-07-22T22:20:45.567Z,100767.47
2023-07-22T22:23:14.161Z,100765.63
2023-07-22T22:25:40.730Z,100764.06
2023-07-22T22:28:07.213Z,100759.88
2023-07-22T22:30:33.651Z,100756.19
2023-07-22T22:33:00.143Z,100759.59
2023-07-22T22:38:45.257Z,100754.41
2023-07-22T22:48:30.798Z,100749.31
2023-07-22T22:51:53.209Z,100746.66
2023-07-22T22:59:30.061Z,100746.88
2023-07-22T23:06:48.760Z,100741.25
2023-07-22T23:12:51.384Z,100740.41
2023-07-22T23:22:57.807Z,100737.53
2023-07-22T23:26:08.421Z,100727.84
